Time;durP1;ratioP1;P1;durP2;ratioP2;P2;SDS_P1;SDS_P2;PMS_P1;PMS_P2;Temp;Humidity;BMP_temperature;BMP_pressure;BME280_temperature;BME280_humidity;BME280_pressure;Samples;Min_cycle;Max_cycle;Signal;HPM_P1;HPM_P2
2022/01/20 00:01:17;;;;;;;;;;;3.50;99.90;;;;;;5051995;28;19921;-77
2022/01/20 00:03:34;;;;;;;;;;;3.60;99.90;;;;;;5048733;28;20036;-77
2022/01/20 00:27:28;;;;;;;;;;;3.40;99.90;;;;;;5052082;28;19925;-77
2022/01/20 00:35:18;;;;;;;;;;;3.40;99.90;;;;;;5051142;28;19921;-77
2022/01/20 00:37:44;;;;;;;;;;;3.40;99.90;;;;;;5050981;28;19921;-77
2022/01/20 00:40:09;;;;;;;;;;;3.50;99.90;;;;;;5034183;28;20195;-77
2022/01/20 00:42:35;;;;;;;;;;;3.50;99.90;;;;;;5033969;28;20268;-76
2022/01/20 00:45:02;;;;;;;;;;;3.50;99.90;;;;;;5033800;28;19924;-76
2022/01/20 00:47:27;;;;;;;;;;;3.50;99.90;;;;;;5036687;28;20271;-77
2022/01/20 00:49:53;;;;;;;;;;;3.60;99.90;;;;;;5034683;28;20047;-76
2022/01/20 00:52:18;;;;;;;;;;;3.60;99.90;;;;;;5033932;28;20290;-76
2022/01/20 00:54:44;;;;;;;;;;;3.60;99.90;;;;;;5050377;28;19925;-76
2022/01/20 00:57:10;;;;;;;;;;;3.60;99.90;;;;;;5033857;28;19967;-77
2022/01/20 00:59:35;;;;;;;;;;;3.70;99.90;;;;;;5032355;28;20414;-76
2022/01/20 01:02:02;;;;;;;;;;;3.70;99.90;;;;;;5033773;28;19925;-77
2022/01/20 01:04:28;;;;;;;;;;;3.80;99.90;;;;;;5033636;28;19974;-76
2022/01/20 01:09:39;;;;;;;;;;;3.80;99.90;;;;;;5050425;28;19998;-76
2022/01/20 01:12:08;;;;;;;;;;;3.90;99.90;;;;;;5033827;28;19924;-75
2022/01/20 01:14:35;;;;;;;;;;;3.90;99.90;;;;;;5049977;28;20023;-74
2022/01/20 01:24:41;;;;;;;;;;;4.10;99.90;;;;;;5050416;28;19994;-75
2022/01/20 01:27:08;;;;;;;;;;;4.20;99.90;;;;;;5036691;28;19927;-75
2022/01/20 01:29:42;;;;;;;;;;;4.10;99.90;;;;;;5054330;28;20454;-75
2022/01/20 01:32:11;;;;;;;;;;;4.00;99.90;;;;;;5037436;28;19927;-74
2022/01/20 01:34:42;;;;;;;;;;;4.00;99.90;;;;;;5037761;28;20371;-74
2022/01/20 01:37:24;;;;;;;;;;;3.80;99.90;;;;;;5037052;28;19924;-74
2022/01/20 01:39:52;;;;;;;;;;;3.70;99.90;;;;;;5037918;28;19921;-74
2022/01/20 01:42:24;;;;;;;;;;;3.70;99.90;;;;;;5053378;28;19940;-74
2022/01/20 01:44:52;;;;;;;;;;;3.50;99.90;;;;;;5037473;28;20016;-74
2022/01/20 01:47:17;;;;;;;;;;;3.40;99.90;;;;;;5033808;28;19921;-74
2022/01/20 01:49:43;;;;;;;;;;;3.30;99.90;;;;;;5017874;28;20372;-74
2022/01/20 01:52:08;;;;;;;;;;;3.20;99.90;;;;;;5018854;28;19921;-74
2022/01/20 01:54:34;;;;;;;;;;;3.20;99.90;;;;;;5036943;28;20307;-74
2022/01/20 01:57:05;;;;;;;;;;;3.20;99.90;;;;;;5036723;28;19921;-74
2022/01/20 01:59:34;;;;;;;;;;;3.20;99.90;;;;;;5037090;28;20425;-74
2022/01/20 02:01:59;;;;;;;;;;;3.20;99.90;;;;;;5036461;28;19925;-74
2022/01/20 02:04:25;;;;;;;;;;;3.20;99.90;;;;;;5037186;28;19921;-74
2022/01/20 02:20:13;;;;;;;;;;;3.20;99.90;;;;;;5053138;28;19921;-74
2022/01/20 02:22:39;;;;;;;;;;;3.30;99.90;;;;;;5036178;28;20418;-74
2022/01/20 02:25:05;;;;;;;;;;;3.40;99.90;;;;;;5036138;28;19964;-74
2022/01/20 02:27:30;;;;;;;;;;;3.50;99.90;;;;;;5036460;28;19968;-74
2022/01/20 02:29:56;;;;;;;;;;;3.60;99.90;;;;;;5036816;28;19921;-74
2022/01/20 02:32:21;;;;;;;;;;;3.60;99.90;;;;;;5036323;28;19921;-74
2022/01/20 02:34:47;;;;;;;;;;;3.60;99.90;;;;;;5052808;28;19970;-75
2022/01/20 02:37:15;;;;;;;;;;;3.60;99.90;;;;;;5035755;28;19970;-76
2022/01/20 02:45:01;;;;;;;;;;;3.50;99.90;;;;;;5023850;28;19928;-74
2022/01/20 02:47:28;;;;;;;;;;;3.60;99.90;;;;;;5036124;28;20227;-74
2022/01/20 02:49:53;;;;;;;;;;;3.60;99.90;;;;;;5036158;28;19956;-75
2022/01/20 02:52:20;;;;;;;;;;;3.50;99.90;;;;;;5035688;28;20451;-74
2022/01/20 02:54:45;;;;;;;;;;;3.60;99.90;;;;;;5035758;28;20106;-74
2022/01/20 02:57:11;;;;;;;;;;;3.60;99.90;;;;;;5035863;28;20019;-74
2022/01/20 02:59:38;;;;;;;;;;;3.60;99.90;;;;;;5052471;28;19921;-74
2022/01/20 03:02:05;;;;;;;;;;;3.60;99.90;;;;;;5036057;28;20306;-74
2022/01/20 03:04:31;;;;;;;;;;;3.60;99.90;;;;;;5051738;28;19927;-74
2022/01/20 03:06:57;;;;;;;;;;;3.70;99.90;;;;;;5035770;28;19920;-74
2022/01/20 03:09:22;;;;;;;;;;;3.70;99.90;;;;;;5035707;28;19927;-74
2022/01/20 03:11:49;;;;;;;;;;;3.80;99.90;;;;;;5035884;28;19928;-75
2022/01/20 03:14:17;;;;;;;;;;;3.80;99.90;;;;;;5035561;28;19982;-76
2022/01/20 03:16:46;;;;;;;;;;;3.70;99.90;;;;;;5035590;28;20054;-75
2022/01/20 03:19:12;;;;;;;;;;;3.70;99.90;;;;;;5035170;28;19924;-75
2022/01/20 03:21:41;;;;;;;;;;;3.70;99.90;;;;;;5035519;28;19925;-76
2022/01/20 03:24:07;;;;;;;;;;;3.60;99.90;;;;;;5035246;28;20383;-75
2022/01/20 03:26:33;;;;;;;;;;;3.60;99.90;;;;;;5035666;28;19924;-75
2022/01/20 03:28:59;;;;;;;;;;;3.60;99.90;;;;;;5035264;28;20024;-75
2022/01/20 03:31:25;;;;;;;;;;;3.60;99.90;;;;;;5051838;28;20317;-76
2022/01/20 03:33:51;;;;;;;;;;;3.50;99.90;;;;;;5051549;28;19932;-75
2022/01/20 03:36:17;;;;;;;;;;;3.50;99.90;;;;;;5035068;28;20337;-75
2022/01/20 03:38:43;;;;;;;;;;;3.50;99.90;;;;;;5034668;28;20019;-75
2022/01/20 03:41:09;;;;;;;;;;;3.50;99.90;;;;;;5035195;28;19924;-75
2022/01/20 03:43:34;;;;;;;;;;;3.50;99.90;;;;;;5034649;28;19951;-76
2022/01/20 03:46:02;;;;;;;;;;;3.40;99.90;;;;;;5034639;28;19995;-75
2022/01/20 03:48:30;;;;;;;;;;;3.40;99.90;;;;;;5017067;28;22964;-76
2022/01/20 03:50:59;;;;;;;;;;;3.40;99.90;;;;;;5031491;28;19937;-75
2022/01/20 03:53:25;;;;;;;;;;;3.50;99.90;;;;;;5015365;28;19947;-77
2022/01/20 03:55:50;;;;;;;;;;;3.50;99.90;;;;;;5015260;28;19921;-77
2022/01/20 03:58:16;;;;;;;;;;;3.30;99.90;;;;;;5031362;28;20306;-75
2022/01/20 04:00:43;;;;;;;;;;;3.30;99.90;;;;;;5031165;28;20384;-75
2022/01/20 04:03:12;;;;;;;;;;;3.30;99.90;;;;;;5014825;28;19925;-76
2022/01/20 04:05:46;;;;;;;;;;;3.20;99.90;;;;;;5034154;28;19921;-75
2022/01/20 04:08:14;;;;;;;;;;;3.10;99.90;;;;;;5034907;28;19921;-75
2022/01/20 04:10:40;;;;;;;;;;;3.10;99.90;;;;;;5050650;28;19966;-75
2022/01/20 04:13:06;;;;;;;;;;;3.10;99.90;;;;;;5034304;28;19920;-76
2022/01/20 04:15:38;;;;;;;;;;;3.10;99.90;;;;;;5034550;28;19972;-76
2022/01/20 04:18:19;;;;;;;;;;;3.10;99.90;;;;;;5034826;28;19928;-75
2022/01/20 04:20:48;;;;;;;;;;;3.20;99.90;;;;;;5034979;28;20003;-75
2022/01/20 04:23:13;;;;;;;;;;;3.20;99.90;;;;;;5034062;28;20382;-75
2022/01/20 04:25:39;;;;;;;;;;;3.10;99.90;;;;;;5033773;28;19921;-77
2022/01/20 04:28:05;;;;;;;;;;;3.10;99.90;;;;;;5035108;28;20023;-75
2022/01/20 04:30:31;;;;;;;;;;;3.10;99.90;;;;;;5033814;28;19921;-75
2022/01/20 04:32:56;;;;;;;;;;;3.10;99.90;;;;;;5034042;28;19921;-75
2022/01/20 04:35:22;;;;;;;;;;;3.10;99.90;;;;;;5030737;28;19921;-75
2022/01/20 04:37:48;;;;;;;;;;;3.10;99.90;;;;;;5024893;28;19975;-75
2022/01/20 04:40:14;;;;;;;;;;;3.20;99.90;;;;;;5034109;28;19927;-75
2022/01/20 04:42:43;;;;;;;;;;;3.10;99.90;;;;;;5033965;28;19979;-75
2022/01/20 04:45:14;;;;;;;;;;;3.10;99.90;;;;;;5050926;28;20329;-75
2022/01/20 04:47:49;;;;;;;;;;;3.10;99.90;;;;;;5024813;28;19987;-75
2022/01/20 04:58:27;;;;;;;;;;;3.00;99.90;;;;;;5050957;28;20294;-75
2022/01/20 05:00:52;;;;;;;;;;;3.00;99.90;;;;;;5037260;28;19920;-75
2022/01/20 05:03:18;;;;;;;;;;;3.00;99.90;;;;;;5037360;28;20326;-74
2022/01/20 05:05:44;;;;;;;;;;;3.00;99.90;;;;;;5038105;28;19920;-77
2022/01/20 05:08:12;;;;;;;;;;;2.90;99.90;;;;;;5037804;28;20011;-77
2022/01/20 05:10:39;;;;;;;;;;;2.90;99.90;;;;;;5038266;28;19920;-77
2022/01/20 05:13:21;;;;;;;;;;;2.80;99.90;;;;;;5037966;28;20314;-77
2022/01/20 05:15:47;;;;;;;;;;;2.70;99.90;;;;;;5037918;28;19990;-76
2022/01/20 05:18:13;;;;;;;;;;;2.60;99.90;;;;;;5034641;28;20396;-77
2022/01/20 05:20:38;;;;;;;;;;;2.60;99.90;;;;;;5017898;28;19991;-77
2022/01/20 05:23:04;;;;;;;;;;;2.70;99.90;;;;;;5023005;28;20015;-77
2022/01/20 05:25:32;;;;;;;;;;;2.80;99.90;;;;;;5037608;28;19920;-77
2022/01/20 05:27:57;;;;;;;;;;;2.80;99.90;;;;;;5037420;28;19920;-77
2022/01/20 05:30:23;;;;;;;;;;;2.80;99.90;;;;;;5037618;28;20349;-77
2022/01/20 05:32:49;;;;;;;;;;;2.70;99.90;;;;;;5037602;28;20348;-77
2022/01/20 05:35:14;;;;;;;;;;;2.70;99.90;;;;;;5037605;28;19924;-77
2022/01/20 05:37:40;;;;;;;;;;;2.60;99.90;;;;;;5037215;28;19928;-77
2022/01/20 05:40:06;;;;;;;;;;;2.50;99.90;;;;;;5037353;28;19921;-77
2022/01/20 05:42:31;;;;;;;;;;;2.50;99.90;;;;;;5036640;28;20341;-77
2022/01/20 05:44:57;;;;;;;;;;;2.40;99.90;;;;;;5037168;28;19943;-77
2022/01/20 05:47:28;;;;;;;;;;;2.30;99.90;;;;;;5037065;28;19929;-77
2022/01/20 05:49:54;;;;;;;;;;;2.10;99.90;;;;;;5037217;28;19924;-77
2022/01/20 05:52:19;;;;;;;;;;;2.00;99.90;;;;;;5036607;28;20054;-77
2022/01/20 05:54:45;;;;;;;;;;;1.90;99.90;;;;;;5053099;28;19925;-77
2022/01/20 05:57:11;;;;;;;;;;;1.80;99.90;;;;;;5036679;28;20005;-77
2022/01/20 05:59:37;;;;;;;;;;;1.70;99.90;;;;;;5037234;28;20013;-77
2022/01/20 06:02:11;;;;;;;;;;;1.70;99.90;;;;;;5032733;28;19924;-77
2022/01/20 06:04:37;;;;;;;;;;;1.70;99.90;;;;;;5053064;28;19921;-77
2022/01/20 06:07:03;;;;;;;;;;;1.80;99.90;;;;;;5036575;28;19935;-75
2022/01/20 06:09:28;;;;;;;;;;;1.80;99.90;;;;;;5049049;28;19921;-77
2022/01/20 06:11:54;;;;;;;;;;;1.80;99.90;;;;;;5032492;28;19947;-79
2022/01/20 06:14:20;;;;;;;;;;;1.90;99.90;;;;;;5018968;28;20368;-76
2022/01/20 06:16:48;;;;;;;;;;;2.00;99.90;;;;;;5021757;28;20315;-76
2022/01/20 06:19:14;;;;;;;;;;;2.00;99.90;;;;;;5051533;28;19921;-77
2022/01/20 06:21:41;;;;;;;;;;;2.00;99.90;;;;;;5031149;28;19925;-77
2022/01/20 06:24:07;;;;;;;;;;;2.10;99.90;;;;;;5026320;28;19925;-79
2022/01/20 06:26:33;;;;;;;;;;;2.10;99.90;;;;;;5035639;28;20323;-79
2022/01/20 06:28:58;;;;;;;;;;;2.10;99.90;;;;;;5036760;28;19920;-79
2022/01/20 06:31:24;;;;;;;;;;;2.10;99.90;;;;;;5036827;28;19931;-79
2022/01/20 06:33:50;;;;;;;;;;;2.10;99.90;;;;;;5053301;28;19936;-79
2022/01/20 06:36:18;;;;;;;;;;;2.00;99.90;;;;;;5036787;28;20240;-79
2022/01/20 06:38:43;;;;;;;;;;;1.90;99.90;;;;;;5036082;28;19928;-79
2022/01/20 06:41:09;;;;;;;;;;;1.90;99.90;;;;;;5052857;28;19944;-78
2022/01/20 06:43:37;;;;;;;;;;;1.90;99.90;;;;;;5036179;28;20324;-79
2022/01/20 06:46:06;;;;;;;;;;;2.00;99.90;;;;;;5036043;28;20383;-79
2022/01/20 06:48:31;;;;;;;;;;;2.00;99.90;;;;;;5036340;28;19921;-79
2022/01/20 06:50:57;;;;;;;;;;;2.00;99.90;;;;;;5036031;28;19935;-79
2022/01/20 06:53:25;;;;;;;;;;;2.10;99.90;;;;;;5032721;28;20012;-79
2022/01/20 06:55:53;;;;;;;;;;;2.10;99.90;;;;;;5016324;28;19921;-79
2022/01/20 06:58:22;;;;;;;;;;;2.10;99.90;;;;;;5022687;28;19960;-79
2022/01/20 07:00:51;;;;;;;;;;;2.00;99.90;;;;;;5035963;28;20283;-78
2022/01/20 07:03:17;;;;;;;;;;;2.00;99.90;;;;;;5036092;28;20276;-77
2022/01/20 07:05:42;;;;;;;;;;;1.90;99.90;;;;;;5035964;28;19921;-78
2022/01/20 07:08:08;;;;;;;;;;;1.80;99.90;;;;;;5035413;28;20337;-78
2022/01/20 07:10:34;;;;;;;;;;;1.80;99.90;;;;;;5031734;28;20007;-78
2022/01/20 07:12:59;;;;;;;;;;;1.80;99.90;;;;;;5029829;28;20298;-78
2022/01/20 07:15:25;;;;;;;;;;;1.70;99.90;;;;;;5035692;28;19925;-78
2022/01/20 07:17:53;;;;;;;;;;;1.60;99.90;;;;;;5035138;28;20007;-78
2022/01/20 07:20:21;;;;;;;;;;;1.50;99.90;;;;;;5035440;28;19928;-78
2022/01/20 07:22:47;;;;;;;;;;;1.40;99.90;;;;;;5034790;28;20015;-77
2022/01/20 07:25:12;;;;;;;;;;;1.30;99.90;;;;;;5035612;28;19967;-77
2022/01/20 07:27:38;;;;;;;;;;;1.30;99.90;;;;;;5035701;28;19974;-75
2022/01/20 07:30:04;;;;;;;;;;;1.20;99.90;;;;;;5035320;28;20024;-75
2022/01/20 07:32:29;;;;;;;;;;;1.20;99.90;;;;;;5034868;28;19921;-75
2022/01/20 07:34:55;;;;;;;;;;;1.20;99.90;;;;;;5035039;28;19990;-75
2022/01/20 07:37:20;;;;;;;;;;;1.20;99.90;;;;;;5034951;28;19964;-75
2022/01/20 07:39:46;;;;;;;;;;;1.20;99.90;;;;;;5035084;28;19924;-75
2022/01/20 07:42:11;;;;;;;;;;;1.30;99.90;;;;;;5051664;28;19925;-75
2022/01/20 07:44:37;;;;;;;;;;;1.40;99.90;;;;;;5034983;28;19942;-75
2022/01/20 07:47:02;;;;;;;;;;;1.40;99.90;;;;;;5035232;28;19921;-75
2022/01/20 07:49:30;;;;;;;;;;;1.50;99.90;;;;;;5051576;28;19925;-75
2022/01/20 07:51:59;;;;;;;;;;;1.50;99.90;;;;;;5034804;28;19920;-75
2022/01/20 07:54:24;;;;;;;;;;;1.50;99.90;;;;;;5034849;28;19925;-75
2022/01/20 07:56:52;;;;;;;;;;;1.60;99.90;;;;;;5034940;28;19927;-75
2022/01/20 07:59:18;;;;;;;;;;;1.60;99.90;;;;;;5034303;28;19921;-75
2022/01/20 08:01:43;;;;;;;;;;;1.60;99.90;;;;;;5034961;28;20376;-75
2022/01/20 08:04:09;;;;;;;;;;;1.70;99.90;;;;;;5034550;28;19921;-75
2022/01/20 08:06:34;;;;;;;;;;;1.70;99.90;;;;;;5034850;28;20035;-76
2022/01/20 08:09:00;;;;;;;;;;;1.80;99.90;;;;;;5051306;28;20603;-76
2022/01/20 08:11:28;;;;;;;;;;;1.80;99.90;;;;;;5035547;28;19921;-76
2022/01/20 08:13:55;;;;;;;;;;;1.80;99.90;;;;;;5034438;28;19977;-76
2022/01/20 08:16:21;;;;;;;;;;;1.70;99.90;;;;;;5034458;28;19986;-76
2022/01/20 08:18:47;;;;;;;;;;;1.70;99.90;;;;;;5034833;28;20387;-76
2022/01/20 08:21:12;;;;;;;;;;;1.70;99.90;;;;;;5034751;28;20012;-76
2022/01/20 08:23:38;;;;;;;;;;;1.70;99.90;;;;;;5034667;28;19921;-76
2022/01/20 08:26:03;;;;;;;;;;;1.80;99.90;;;;;;5034743;28;20015;-76
2022/01/20 08:28:31;;;;;;;;;;;1.90;99.90;;;;;;5034859;28;19921;-76
2022/01/20 08:30:57;;;;;;;;;;;1.90;99.90;;;;;;5034612;28;20000;-76
2022/01/20 08:33:22;;;;;;;;;;;1.90;99.90;;;;;;5034597;28;20018;-76
2022/01/20 08:35:49;;;;;;;;;;;1.90;99.90;;;;;;5034371;28;19932;-76
2022/01/20 08:38:17;;;;;;;;;;;1.90;99.90;;;;;;5034802;28;19925;-76
2022/01/20 08:40:43;;;;;;;;;;;1.80;99.90;;;;;;5034184;28;19920;-76
2022/01/20 08:43:09;;;;;;;;;;;1.80;99.90;;;;;;5034084;28;19939;-76
2022/01/20 08:45:35;;;;;;;;;;;1.70;99.90;;;;;;5034417;28;19950;-76
2022/01/20 08:48:03;;;;;;;;;;;1.80;99.90;;;;;;5034276;28;19921;-76
2022/01/20 08:50:30;;;;;;;;;;;1.80;99.90;;;;;;5034753;28;19921;-76
2022/01/20 08:52:58;;;;;;;;;;;1.80;99.90;;;;;;5034485;28;20012;-76
2022/01/20 08:55:26;;;;;;;;;;;1.90;99.90;;;;;;5033958;28;20421;-76
2022/01/20 08:57:53;;;;;;;;;;;1.90;99.90;;;;;;5033989;28;19920;-76
2022/01/20 09:00:20;;;;;;;;;;;1.90;99.90;;;;;;5033601;28;19921;-76
2022/01/20 09:02:46;;;;;;;;;;;2.00;99.90;;;;;;5033688;28;20028;-76
2022/01/20 09:05:14;;;;;;;;;;;2.00;99.90;;;;;;5033883;28;20406;-76
2022/01/20 09:07:42;;;;;;;;;;;2.00;99.90;;;;;;5033908;28;19921;-76
2022/01/20 09:10:08;;;;;;;;;;;2.10;99.90;;;;;;5034094;28;19921;-76
2022/01/20 09:17:46;;;;;;;;;;;2.00;99.90;;;;;;5050481;28;19921;-76
2022/01/20 09:20:11;;;;;;;;;;;2.10;99.90;;;;;;5033659;28;19920;-76
2022/01/20 09:22:37;;;;;;;;;;;2.10;99.90;;;;;;5033501;28;20295;-76
2022/01/20 09:25:04;;;;;;;;;;;2.10;99.90;;;;;;5034070;28;20062;-76
2022/01/20 09:27:30;;;;;;;;;;;2.30;99.90;;;;;;5033915;28;20355;-75
2022/01/20 09:29:55;;;;;;;;;;;2.50;99.90;;;;;;5033968;28;19976;-75
2022/01/20 09:32:23;;;;;;;;;;;2.50;99.90;;;;;;5033877;28;19986;-75
2022/01/20 09:34:48;;;;;;;;;;;2.60;99.90;;;;;;5033735;28;19920;-75
2022/01/20 09:37:17;;;;;;;;;;;2.70;99.90;;;;;;5033959;28;20037;-75
2022/01/20 09:39:45;;;;;;;;;;;2.80;99.90;;;;;;5033589;28;19927;-75
2022/01/20 09:42:11;;;;;;;;;;;3.00;99.90;;;;;;5033353;28;19929;-75
2022/01/20 09:44:44;;;;;;;;;;;3.00;99.90;;;;;;5033911;28;19921;-75
2022/01/20 09:47:10;;;;;;;;;;;3.30;99.90;;;;;;5035122;28;19921;-76
2022/01/20 09:49:37;;;;;;;;;;;3.60;99.90;;;;;;5037408;28;20019;-76
2022/01/20 09:52:02;;;;;;;;;;;3.80;99.90;;;;;;5037562;28;19963;-76
2022/01/20 09:54:28;;;;;;;;;;;3.70;99.90;;;;;;5037259;28;19927;-76
2022/01/20 09:56:57;;;;;;;;;;;3.60;99.90;;;;;;5037138;28;19920;-76
2022/01/20 09:59:27;;;;;;;;;;;3.50;99.90;;;;;;5037355;28;20003;-76
2022/01/20 10:01:56;;;;;;;;;;;3.50;99.90;;;;;;5036905;28;19925;-76
2022/01/20 10:04:32;;;;;;;;;;;3.50;99.90;;;;;;5037492;28;20015;-76
2022/01/20 10:06:59;;;;;;;;;;;3.50;99.90;;;;;;5036834;28;19970;-76
2022/01/20 10:09:36;;;;;;;;;;;3.50;99.90;;;;;;5037554;28;19928;-76
2022/01/20 10:12:03;;;;;;;;;;;3.50;99.90;;;;;;5053885;28;19928;-76
2022/01/20 10:14:42;;;;;;;;;;;3.50;99.90;;;;;;5036671;28;20035;-76
2022/01/20 10:17:18;;;;;;;;;;;3.60;99.90;;;;;;5036562;28;19925;-76
2022/01/20 10:19:43;;;;;;;;;;;3.70;99.90;;;;;;5036704;28;19927;-76
2022/01/20 10:22:09;;;;;;;;;;;3.80;99.90;;;;;;5036759;28;19925;-76
2022/01/20 10:24:35;;;;;;;;;;;3.90;99.90;;;;;;5036414;28;19925;-76
2022/01/20 10:27:07;;;;;;;;;;;4.10;99.90;;;;;;5043151;23;19929;-76
2022/01/20 10:29:32;;;;;;;;;;;4.30;99.90;;;;;;5016955;28;19928;-76
2022/01/20 10:31:58;;;;;;;;;;;4.50;99.90;;;;;;5033716;28;19921;-76
2022/01/20 10:34:28;;;;;;;;;;;4.50;99.90;;;;;;5032957;28;19971;-77
2022/01/20 10:36:55;;;;;;;;;;;4.70;99.90;;;;;;5033230;28;19921;-77
2022/01/20 10:39:38;;;;;;;;;;;4.80;99.90;;;;;;5033156;28;19921;-77
2022/01/20 10:42:05;;;;;;;;;;;4.90;99.90;;;;;;5033247;28;19995;-76
2022/01/20 10:44:50;;;;;;;;;;;4.80;99.90;;;;;;5032884;28;19921;-77
2022/01/20 10:47:16;;;;;;;;;;;4.80;99.90;;;;;;5033002;28;19922;-77
2022/01/20 10:49:42;;;;;;;;;;;4.70;99.90;;;;;;5033289;28;19921;-77
2022/01/20 10:52:09;;;;;;;;;;;4.90;99.90;;;;;;5033300;28;20213;-77
2022/01/20 10:54:35;;;;;;;;;;;4.80;99.90;;;;;;5032643;28;19921;-77
2022/01/20 10:57:01;;;;;;;;;;;5.00;99.90;;;;;;5016005;28;19925;-77
2022/01/20 10:59:26;;;;;;;;;;;5.20;99.90;;;;;;5032732;28;20401;-77
2022/01/20 11:01:58;;;;;;;;;;;5.30;99.90;;;;;;5016844;28;20298;-77
2022/01/20 11:04:23;;;;;;;;;;;5.20;99.90;;;;;;5032616;28;19928;-77
2022/01/20 11:06:54;;;;;;;;;;;5.00;99.90;;;;;;5032514;28;19921;-77
2022/01/20 11:09:21;;;;;;;;;;;4.90;99.90;;;;;;5032559;28;20306;-77
2022/01/20 11:11:48;;;;;;;;;;;4.80;99.90;;;;;;5032488;28;19921;-77
2022/01/20 11:14:14;;;;;;;;;;;4.60;99.90;;;;;;5032296;28;20026;-77
2022/01/20 11:16:40;;;;;;;;;;;4.60;99.90;;;;;;5016158;28;20272;-77
2022/01/20 11:19:15;;;;;;;;;;;4.60;99.90;;;;;;5015958;28;19975;-77
2022/01/20 11:21:43;;;;;;;;;;;4.50;99.90;;;;;;5032713;28;19928;-77
2022/01/20 11:24:22;;;;;;;;;;;4.40;99.90;;;;;;5032300;28;20015;-77
2022/01/20 11:26:55;;;;;;;;;;;4.30;99.90;;;;;;5032115;28;19928;-77
2022/01/20 11:29:22;;;;;;;;;;;4.30;99.90;;;;;;5032511;28;19921;-77
2022/01/20 11:31:48;;;;;;;;;;;4.20;99.90;;;;;;5032227;28;19921;-77
2022/01/20 11:34:14;;;;;;;;;;;4.00;99.90;;;;;;5015485;28;19944;-77
2022/01/20 11:36:41;;;;;;;;;;;3.90;99.90;;;;;;5032489;28;20398;-77
2022/01/20 11:39:06;;;;;;;;;;;3.80;99.90;;;;;;5015424;28;19921;-77
2022/01/20 11:41:39;;;;;;;;;;;3.60;99.90;;;;;;5031917;28;19925;-77
2022/01/20 11:44:23;;;;;;;;;;;3.50;99.90;;;;;;5031787;28;19925;-77
2022/01/20 11:46:50;;;;;;;;;;;3.40;99.90;;;;;;5015353;28;19928;-77
2022/01/20 11:49:18;;;;;;;;;;;3.40;99.90;;;;;;5031815;28;20409;-77
2022/01/20 11:51:51;;;;;;;;;;;3.60;99.90;;;;;;5031783;28;19921;-77
2022/01/20 11:54:27;;;;;;;;;;;4.50;99.90;;;;;;5015241;28;19921;-77
2022/01/20 11:57:03;;;;;;;;;;;5.10;99.90;;;;;;5031906;28;20387;-77
2022/01/20 11:59:34;;;;;;;;;;;5.90;99.90;;;;;;5031646;28;19921;-77
2022/01/20 12:02:00;;;;;;;;;;;7.00;99.90;;;;;;5015285;28;19932;-77
2022/01/20 12:04:32;;;;;;;;;;;7.80;99.90;;;;;;5014826;28;19921;-77
2022/01/20 12:06:57;;;;;;;;;;;8.50;99.90;;;;;;5015272;28;20356;-77
2022/01/20 12:09:27;;;;;;;;;;;9.10;99.90;;;;;;5030691;28;19956;-77
2022/01/20 12:11:53;;;;;;;;;;;9.20;95.90;;;;;;5015225;28;20015;-77
2022/01/20 12:14:32;;;;;;;;;;;8.40;99.90;;;;;;5015037;28;19922;-77
2022/01/20 12:17:05;;;;;;;;;;;7.40;99.90;;;;;;5031740;28;19948;-77
2022/01/20 12:19:31;;;;;;;;;;;6.50;99.90;;;;;;5031435;28;20416;-77
2022/01/20 12:21:56;;;;;;;;;;;5.80;99.90;;;;;;5031429;28;19925;-77
2022/01/20 12:24:22;;;;;;;;;;;5.40;99.90;;;;;;5031371;28;20398;-77
2022/01/20 12:26:47;;;;;;;;;;;5.80;99.90;;;;;;5030980;28;19921;-77
2022/01/20 12:29:13;;;;;;;;;;;6.60;99.90;;;;;;5031241;28;19928;-77
2022/01/20 12:31:54;;;;;;;;;;;7.40;99.90;;;;;;5031468;28;19960;-77
2022/01/20 12:34:21;;;;;;;;;;;8.10;99.90;;;;;;5014484;28;19928;-77
2022/01/20 12:36:52;;;;;;;;;;;8.70;99.90;;;;;;5030999;28;19929;-77
2022/01/20 12:39:26;;;;;;;;;;;8.90;98.60;;;;;;5014469;28;19921;-77
2022/01/20 12:41:55;;;;;;;;;;;9.10;99.00;;;;;;5030913;28;19925;-77
2022/01/20 12:44:20;;;;;;;;;;;9.30;99.90;;;;;;5031068;28;19990;-77
2022/01/20 12:46:46;;;;;;;;;;;9.50;95.00;;;;;;5031284;28;20359;-77
2022/01/20 12:49:13;;;;;;;;;;;9.70;99.00;;;;;;5030915;28;19932;-77
2022/01/20 12:51:40;;;;;;;;;;;9.90;93.30;;;;;;5030897;28;19930;-77
2022/01/20 12:54:07;;;;;;;;;;;9.90;91.30;;;;;;5030638;28;19928;-77
2022/01/20 12:56:34;;;;;;;;;;;10.00;90.80;;;;;;5014322;28;20055;-77
2022/01/20 12:59:00;;;;;;;;;;;9.80;90.60;;;;;;5030874;28;19928;-77
2022/01/20 13:01:36;;;;;;;;;;;9.00;93.00;;;;;;5014319;28;20024;-77
2022/01/20 13:04:01;;;;;;;;;;;8.10;98.20;;;;;;5014221;28;20479;-77
2022/01/20 13:06:28;;;;;;;;;;;7.40;99.90;;;;;;5030587;28;19968;-77
2022/01/20 13:09:06;;;;;;;;;;;7.10;99.90;;;;;;5030877;28;19929;-77
2022/01/20 13:11:43;;;;;;;;;;;6.90;99.90;;;;;;5030781;28;19971;-77
2022/01/20 13:14:09;;;;;;;;;;;6.40;99.90;;;;;;5014150;28;19928;-77
2022/01/20 13:16:35;;;;;;;;;;;6.00;99.90;;;;;;5030657;28;19921;-77
2022/01/20 13:19:02;;;;;;;;;;;5.60;99.90;;;;;;5014227;28;19921;-78
2022/01/20 13:21:39;;;;;;;;;;;5.30;99.90;;;;;;5016271;28;19980;-77
2022/01/20 13:24:06;;;;;;;;;;;4.90;99.90;;;;;;5034543;28;19921;-77
2022/01/20 13:26:43;;;;;;;;;;;4.70;99.90;;;;;;5018172;28;20358;-77
2022/01/20 13:29:08;;;;;;;;;;;4.50;99.90;;;;;;5018105;28;19964;-77
2022/01/20 13:31:34;;;;;;;;;;;4.40;99.90;;;;;;5034613;28;19987;-77
2022/01/20 13:34:05;;;;;;;;;;;4.20;99.90;;;;;;5034152;28;19927;-77
2022/01/20 13:36:38;;;;;;;;;;;4.10;99.90;;;;;;5034216;28;19925;-77
2022/01/20 13:39:04;;;;;;;;;;;4.20;99.90;;;;;;5034232;28;19921;-77
2022/01/20 13:41:29;;;;;;;;;;;4.30;99.90;;;;;;5034130;28;19932;-77
2022/01/20 13:47:05;;;;;;;;;;;4.40;99.90;;;;;;5033416;28;19975;-77
2022/01/20 13:49:30;;;;;;;;;;;4.40;99.90;;;;;;5034167;28;19921;-77
2022/01/20 13:52:06;;;;;;;;;;;4.40;99.90;;;;;;5017898;28;20436;-77
2022/01/20 13:55:04;;;;;;;;;;;4.40;99.90;;;;;;5033742;28;19925;-77
2022/01/20 13:57:37;;;;;;;;;;;4.40;99.90;;;;;;5028552;28;19968;-77
2022/01/20 14:00:03;;;;;;;;;;;4.30;99.90;;;;;;5034026;28;19921;-77
2022/01/20 14:02:28;;;;;;;;;;;4.30;99.90;;;;;;5033961;28;19971;-77
2022/01/20 14:04:54;;;;;;;;;;;4.20;99.90;;;;;;5033662;28;20410;-77
2022/01/20 14:07:20;;;;;;;;;;;4.20;99.90;;;;;;5017244;28;20283;-76
2022/01/20 14:09:46;;;;;;;;;;;4.30;99.90;;;;;;5034050;28;19992;-76
2022/01/20 14:12:12;;;;;;;;;;;4.40;99.90;;;;;;5033721;28;20014;-77
2022/01/20 14:14:37;;;;;;;;;;;4.50;99.90;;;;;;5033469;28;19971;-77
2022/01/20 14:17:07;;;;;;;;;;;4.40;99.90;;;;;;5033552;28;19921;-77
2022/01/20 14:19:36;;;;;;;;;;;4.40;99.90;;;;;;5016915;28;20019;-77
2022/01/20 14:22:04;;;;;;;;;;;4.30;99.90;;;;;;5016935;28;19929;-77
2022/01/20 14:24:30;;;;;;;;;;;4.20;99.90;;;;;;5033310;28;19921;-77
2022/01/20 14:27:08;;;;;;;;;;;4.10;99.90;;;;;;5033240;28;19947;-77
2022/01/20 14:29:33;;;;;;;;;;;4.00;99.90;;;;;;5017282;28;19921;-76
2022/01/20 14:31:59;;;;;;;;;;;3.80;99.90;;;;;;5016098;28;19928;-77
2022/01/20 14:34:24;;;;;;;;;;;3.70;99.90;;;;;;5033280;28;20023;-77
2022/01/20 14:36:49;;;;;;;;;;;3.60;99.90;;;;;;5033164;28;19929;-77
2022/01/20 14:39:15;;;;;;;;;;;3.50;99.90;;;;;;5033558;28;19927;-77
2022/01/20 14:41:40;;;;;;;;;;;3.60;99.90;;;;;;5033145;28;19976;-77
2022/01/20 14:44:06;;;;;;;;;;;3.70;99.90;;;;;;5032890;28;19921;-77
2022/01/20 14:46:31;;;;;;;;;;;3.70;99.90;;;;;;5032901;28;19976;-77
2022/01/20 14:48:57;;;;;;;;;;;3.70;99.90;;;;;;5033212;28;19925;-77
2022/01/20 14:51:24;;;;;;;;;;;3.60;99.90;;;;;;5033010;28;19921;-77
2022/01/20 14:53:50;;;;;;;;;;;3.60;99.90;;;;;;5016302;28;19921;-77
2022/01/20 14:56:19;;;;;;;;;;;3.60;99.90;;;;;;5032886;28;19921;-77
2022/01/20 14:58:47;;;;;;;;;;;3.70;99.90;;;;;;5033082;28;19993;-77
2022/01/20 15:01:13;;;;;;;;;;;3.70;99.90;;;;;;5033086;28;20111;-77
2022/01/20 15:03:38;;;;;;;;;;;3.60;99.90;;;;;;5032813;28;19928;-77
2022/01/20 15:06:04;;;;;;;;;;;3.50;99.90;;;;;;5032750;28;19925;-77
2022/01/20 15:08:29;;;;;;;;;;;3.40;99.90;;;;;;5033013;28;19921;-77
2022/01/20 15:10:55;;;;;;;;;;;3.30;99.90;;;;;;5032904;28;19936;-77
2022/01/20 15:13:20;;;;;;;;;;;3.20;99.90;;;;;;5032382;28;20021;-77
2022/01/20 15:15:46;;;;;;;;;;;3.10;99.90;;;;;;5032953;28;19921;-77
2022/01/20 15:18:11;;;;;;;;;;;3.00;99.90;;;;;;5032676;28;20023;-77
2022/01/20 15:20:39;;;;;;;;;;;3.00;99.90;;;;;;5032414;28;20162;-77
2022/01/20 15:23:05;;;;;;;;;;;2.90;99.90;;;;;;5032120;28;20080;-76
2022/01/20 15:25:31;;;;;;;;;;;2.80;99.90;;;;;;5015839;28;19921;-77
2022/01/20 15:27:56;;;;;;;;;;;2.70;99.90;;;;;;5015792;28;20407;-77
2022/01/20 15:30:22;;;;;;;;;;;2.60;99.90;;;;;;5032268;28;19928;-76
2022/01/20 15:32:47;;;;;;;;;;;2.50;99.90;;;;;;5031891;28;20029;-77
2022/01/20 15:35:13;;;;;;;;;;;2.50;99.90;;;;;;5015621;28;19983;-77
2022/01/20 15:37:38;;;;;;;;;;;2.40;99.90;;;;;;5015766;28;19928;-77
2022/01/20 15:40:08;;;;;;;;;;;2.40;99.90;;;;;;5031931;28;19923;-77
2022/01/20 15:42:34;;;;;;;;;;;2.40;99.90;;;;;;5031788;28;19925;-77
2022/01/20 15:45:01;;;;;;;;;;;2.40;99.90;;;;;;5031843;28;20351;-77